Time;durP1;ratioP1;P1;durP2;ratioP2;P2;SDS_P1;SDS_P2;PMS_P1;PMS_P2;Temp;Humidity;BMP_temperature;BMP_pressure;BME280_temperature;BME280_humidity;BME280_pressure;Samples;Min_cycle;Max_cycle;Signal;HPM_P1;HPM_P2
2022/04/02 00:01:39;;;;;;;3.55;2.33;;;;;;;7.90;100.00;98879.94;4878157;29;20397;-76
2022/04/02 00:04:09;;;;;;;3.38;2.55;;;;;;;7.96;100.00;98879.84;4877897;29;20045;-76
2022/04/02 00:06:37;;;;;;;3.35;2.47;;;;;;;7.94;100.00;98885.59;4877714;29;20064;-76
2022/04/02 00:09:06;;;;;;;3.05;2.22;;;;;;;7.87;100.00;98887.91;4884244;29;20501;-76
2022/04/02 00:11:34;;;;;;;9.13;2.70;;;;;;;7.80;100.00;98882.88;4878086;29;20049;-76
2022/04/02 00:14:02;;;;;;;5.55;2.75;;;;;;;7.72;100.00;98881.66;4878501;29;20057;-76
2022/04/02 00:16:30;;;;;;;4.28;2.53;;;;;;;7.88;100.00;98890.31;4881481;29;20072;-76
2022/04/02 00:18:58;;;;;;;3.42;2.47;;;;;;;7.81;100.00;98881.75;4880292;29;20048;-75
2022/04/02 00:21:26;;;;;;;4.63;2.60;;;;;;;7.80;100.00;98880.97;4881398;29;20049;-76
2022/04/02 00:23:54;;;;;;;5.13;3.25;;;;;;;7.83;100.00;98885.00;4880134;29;20056;-76
2022/04/02 00:26:23;;;;;;;3.95;3.15;;;;;;;7.90;100.00;98890.00;4881079;29;20056;-76
2022/04/02 00:28:51;;;;;;;4.20;3.38;;;;;;;7.93;100.00;98889.41;4880187;29;20053;-76
2022/04/02 00:31:21;;;;;;;6.13;4.60;;;;;;;7.90;100.00;98893.56;4881201;29;20403;-76
2022/04/02 00:33:50;;;;;;;4.35;3.47;;;;;;;7.84;100.00;98892.03;4881125;29;20053;-76
2022/04/02 00:36:20;;;;;;;5.80;3.88;;;;;;;7.74;100.00;98895.78;4890810;29;20128;-76
2022/04/02 00:38:49;;;;;;;3.63;3.30;;;;;;;7.77;100.00;98897.88;4879896;29;20064;-75
2022/04/02 00:41:17;;;;;;;8.15;3.50;;;;;;;7.78;100.00;98891.31;4881090;29;20056;-76
2022/04/02 00:43:58;;;;;;;6.85;4.05;;;;;;;7.82;100.00;98896.97;4887539;29;20033;-76
2022/04/02 00:46:27;;;;;;;7.13;3.92;;;;;;;7.83;100.00;98906.78;4869023;29;20404;-75
2022/04/02 00:48:55;;;;;;;7.05;4.03;;;;;;;7.88;100.00;98905.88;4879862;29;20056;-76
2022/04/02 00:51:24;;;;;;;6.10;3.90;;;;;;;8.10;100.00;98907.03;4879875;29;20519;-76
2022/04/02 00:53:52;;;;;;;5.78;3.65;;;;;;;8.23;99.60;98902.69;4879703;29;20111;-76
2022/04/02 00:56:21;;;;;;;4.45;2.70;;;;;;;8.15;96.57;98907.75;4879341;29;20478;-76
2022/04/02 00:58:49;;;;;;;2.85;2.33;;;;;;;8.14;85.44;98908.06;4880784;29;20056;-76
2022/04/02 01:01:18;;;;;;;5.05;2.55;;;;;;;8.09;83.84;98908.16;4879827;29;20049;-76
2022/04/02 01:03:49;;;;;;;4.25;2.53;;;;;;;7.97;84.79;98904.03;4880805;29;20056;-76
2022/04/02 01:06:22;;;;;;;4.25;2.03;;;;;;;8.05;81.77;98903.34;4876690;29;20051;-76
2022/04/02 01:08:52;;;;;;;5.18;1.60;;;;;;;8.15;78.62;98907.75;4879299;29;20080;-75
2022/04/02 01:11:21;;;;;;;4.55;1.70;;;;;;;8.07;77.64;98905.75;4873005;29;20050;-76
2022/04/02 01:13:53;;;;;;;4.57;1.27;;;;;;;8.04;76.38;98912.63;4861598;29;20056;-75
2022/04/02 01:16:21;;;;;;;4.82;1.45;;;;;;;8.03;73.58;98910.97;4879123;29;20049;-75
2022/04/02 01:18:56;;;;;;;4.40;1.50;;;;;;;7.93;77.52;98919.38;4879379;29;20048;-75
2022/04/02 01:21:27;;;;;;;6.60;1.58;;;;;;;7.91;74.14;98913.41;4879226;29;20048;-76
2022/04/02 01:23:59;;;;;;;4.93;1.38;;;;;;;7.87;75.73;98926.84;4878949;29;20052;-76
2022/04/02 01:26:29;;;;;;;6.57;2.33;;;;;;;7.92;73.96;98917.78;4878526;29;20044;-75
2022/04/02 01:29:08;;;;;;;3.47;1.55;;;;;;;7.85;73.61;98915.44;4878938;29;20075;-75
2022/04/02 01:31:45;;;;;;;4.80;1.40;;;;;;;7.75;76.25;98916.47;4877731;29;20044;-75
2022/04/02 01:34:19;;;;;;;4.88;1.52;;;;;;;7.67;81.33;98925.31;4878270;29;20061;-76
2022/04/02 01:36:49;;;;;;;2.28;1.73;;;;;;;7.62;77.77;98925.44;4878456;29;20044;-75
2022/04/02 01:39:25;;;;;;;5.05;1.13;;;;;;;7.59;80.12;98929.56;4878749;29;20045;-75
2022/04/02 01:41:53;;;;;;;3.78;1.33;;;;;;;7.61;81.34;98926.50;4879707;29;20041;-76
2022/04/02 01:44:28;;;;;;;4.28;1.35;;;;;;;7.58;83.57;98927.91;4878770;29;20045;-75
2022/04/02 01:46:56;;;;;;;4.72;1.70;;;;;;;7.53;79.23;98928.81;4877348;29;20053;-75
2022/04/02 01:49:25;;;;;;;1.98;1.20;;;;;;;7.53;85.31;98934.28;4877360;29;20508;-75
2022/04/02 01:51:55;;;;;;;5.30;1.85;;;;;;;7.50;82.42;98932.16;4863297;29;20052;-75
2022/04/02 01:54:22;;;;;;;5.55;1.55;;;;;;;7.51;77.36;98935.69;4879314;29;20115;-75
2022/04/02 01:57:01;;;;;;;6.05;1.85;;;;;;;7.49;78.31;98946.84;4876908;29;20056;-75
2022/04/02 01:59:29;;;;;;;9.02;1.60;;;;;;;7.55;76.24;98938.59;4877761;29;20045;-75
2022/04/02 02:01:57;;;;;;;6.82;2.03;;;;;;;7.69;71.36;98938.63;4877917;29;20044;-75
2022/04/02 02:04:26;;;;;;;3.92;1.45;;;;;;;7.72;71.89;98952.44;4878452;29;20048;-75
2022/04/02 02:06:54;;;;;;;2.58;1.50;;;;;;;7.78;74.30;98945.78;4878068;29;20033;-75
2022/04/02 02:09:23;;;;;;;5.30;1.35;;;;;;;7.78;76.88;98951.25;4879754;29;20053;-75
2022/04/02 02:12:10;;;;;;;3.05;1.05;;;;;;;7.64;76.51;98947.72;4878699;29;20052;-75
2022/04/02 02:14:46;;;;;;;4.18;1.30;;;;;;;7.46;76.53;98950.19;4878175;29;20060;-75
2022/04/02 02:17:19;;;;;;;2.63;1.02;;;;;;;7.32;80.03;98943.91;4879520;29;20052;-75
2022/04/02 02:19:56;;;;;;;4.50;1.48;;;;;;;7.36;79.74;98943.03;4878234;29;20056;-75
2022/04/02 02:22:24;;;;;;;4.03;1.00;;;;;;;7.48;79.18;98939.00;4878251;29;20049;-75
2022/04/02 02:24:51;;;;;;;2.05;0.82;;;;;;;7.50;75.69;98937.59;4879192;29;20053;-75
2022/04/02 02:27:19;;;;;;;4.80;1.42;;;;;;;7.38;77.40;98927.19;4878130;29;20052;-75
2022/04/02 02:29:48;;;;;;;7.70;1.20;;;;;;;7.20;79.88;98933.50;4877961;29;20052;-75
2022/04/02 02:32:20;;;;;;;1.40;1.17;;;;;;;7.03;79.85;98928.63;4878144;29;20045;-75
2022/04/02 02:37:38;;;;;;;3.63;1.20;;;;;;;6.95;78.48;98925.44;4877527;29;20056;-75
2022/04/02 02:40:11;;;;;;;2.28;1.30;;;;;;;6.93;80.36;98929.56;4877761;29;20405;-75
2022/04/02 02:42:40;;;;;;;4.05;1.08;;;;;;;6.94;80.71;98931.19;4877834;29;20049;-76
2022/04/02 02:45:35;;;;;;;4.78;1.75;;;;;;;7.09;79.03;98928.22;4864003;29;20053;-75
2022/04/02 02:48:04;;;;;;;5.38;1.30;;;;;;;6.98;80.50;98935.75;4878906;29;20052;-75
2022/04/02 02:50:53;;;;;;;4.10;1.05;;;;;;;7.08;78.93;98936.66;4878735;29;20420;-75
2022/04/02 02:53:21;;;;;;;4.95;1.27;;;;;;;7.03;81.48;98945.72;4878807;29;20056;-75
2022/04/02 02:55:49;;;;;;;2.03;1.55;;;;;;;6.98;80.47;98949.34;4878599;29;20048;-75
2022/04/02 02:58:19;;;;;;;3.33;1.35;;;;;;;7.12;80.50;98946.69;4877679;29;20076;-75
2022/04/02 03:00:47;;;;;;;5.28;1.70;;;;;;;7.09;78.61;98949.97;4878280;29;20052;-76
2022/04/02 03:03:22;;;;;;;4.43;1.15;;;;;;;6.96;80.78;98945.31;4884584;29;20052;-75
2022/04/02 03:05:52;;;;;;;4.88;1.40;;;;;;;6.80;80.65;98945.53;4877264;29;20063;-75
2022/04/02 03:08:21;;;;;;;3.72;1.52;;;;;;;6.78;80.87;98955.06;4877284;29;20563;-75
2022/04/02 03:10:58;;;;;;;3.88;1.10;;;;;;;6.86;81.09;98946.28;4877338;29;20484;-75
2022/04/02 03:13:30;;;;;;;1.92;1.05;;;;;;;6.79;79.33;98938.47;4877379;29;20053;-75
2022/04/02 03:16:07;;;;;;;4.30;0.95;;;;;;;6.56;80.72;98932.03;4861497;29;20060;-75
2022/04/02 03:18:43;;;;;;;2.85;1.38;;;;;;;6.64;81.57;98923.19;4878612;29;20057;-75
2022/04/02 03:21:16;;;;;;;7.83;1.87;;;;;;;6.56;82.87;98929.31;4877300;29;20393;-76
2022/04/02 03:23:44;;;;;;;3.28;1.45;;;;;;;6.49;83.26;98920.72;4877171;29;20285;-75
2022/04/02 03:26:15;;;;;;;7.00;1.58;;;;;;;6.31;85.43;98925.84;4878155;29;20068;-75
2022/04/02 03:28:43;;;;;;;1.85;1.17;;;;;;;6.30;84.67;98924.19;4877145;29;20044;-75
2022/04/02 03:31:12;;;;;;;3.85;1.13;;;;;;;6.14;86.92;98923.59;4878498;29;20111;-75
2022/04/02 03:33:43;;;;;;;4.28;1.05;;;;;;;6.09;87.34;98924.47;4876655;29;20044;-75
2022/04/02 03:36:12;;;;;;;6.45;1.33;;;;;;;6.10;89.54;98922.59;4877049;29;20053;-75
2022/04/02 03:38:42;;;;;;;4.50;1.30;;;;;;;6.05;88.25;98926.16;4861858;29;20045;-75
2022/04/02 03:41:14;;;;;;;5.18;1.67;;;;;;;6.17;88.18;98923.03;4877243;29;20489;-75
2022/04/02 03:43:46;;;;;;;7.22;2.05;;;;;;;6.18;88.88;98921.94;4862100;29;20048;-75
2022/04/02 03:47:22;;;;;;;2.85;1.20;;;;;;;6.18;86.93;98922.75;4869103;29;20052;-75
2022/04/02 03:49:18;;;;;;;6.30;1.60;;;;;;;5.99;89.34;98919.97;4871936;29;20412;-75
2022/04/02 03:51:46;;;;;;;10.25;1.58;;;;;;;5.84;90.16;98914.69;4880817;29;20052;-75
2022/04/02 03:54:19;;;;;;;6.07;1.17;;;;;;;5.72;89.90;98915.91;4880837;29;20078;-75
2022/04/02 03:56:52;;;;;;;6.13;1.63;;;;;;;5.75;92.16;98914.53;4880842;29;20057;-75
2022/04/02 03:59:20;;;;;;;1.45;1.15;;;;;;;5.74;90.45;98916.44;4880780;29;20152;-75
2022/04/02 04:01:52;;;;;;;3.78;1.77;;;;;;;5.83;88.73;98907.66;4887419;29;20049;-75
2022/04/02 04:04:24;;;;;;;4.90;1.55;;;;;;;5.85;89.91;98922.56;4866956;29;20057;-76
2022/04/02 04:06:52;;;;;;;5.15;1.60;;;;;;;5.76;91.50;98916.97;4880263;29;20044;-75
2022/04/02 04:09:21;;;;;;;2.58;1.08;;;;;;;5.61;95.19;98923.34;4886078;29;20060;-75
2022/04/02 04:11:51;;;;;;;4.47;1.77;;;;;;;5.57;96.27;98932.38;4865605;29;20056;-75
2022/04/02 04:14:24;;;;;;;5.20;1.63;;;;;;;5.51;95.76;98924.28;4880262;29;20041;-75
2022/04/02 04:16:54;;;;;;;4.50;1.55;;;;;;;5.49;96.26;98933.81;4862056;29;20042;-75
2022/04/02 04:19:23;;;;;;;7.30;1.50;;;;;;;5.57;92.71;98935.88;4874507;29;20057;-75
2022/04/02 04:21:51;;;;;;;2.65;1.52;;;;;;;5.62;92.61;98940.47;4880222;29;20037;-75
2022/04/02 04:24:24;;;;;;;3.80;1.90;;;;;;;5.61;92.21;98939.66;4880299;29;20060;-75
2022/04/02 04:26:53;;;;;;;3.47;1.40;;;;;;;5.66;91.12;98938.78;4861613;29;20057;-75
2022/04/02 04:29:22;;;;;;;7.13;1.73;;;;;;;5.68;92.32;98935.78;4873800;29;20044;-75
2022/04/02 04:31:50;;;;;;;6.70;1.48;;;;;;;5.64;92.32;98939.06;4862219;29;20049;-75
2022/04/02 04:34:18;;;;;;;6.10;1.45;;;;;;;5.61;92.79;98941.53;4872491;29;20404;-75
2022/04/02 04:36:46;;;;;;;5.03;1.20;;;;;;;5.77;90.62;98944.94;4879652;29;20053;-75
2022/04/02 04:39:15;;;;;;;3.45;1.00;;;;;;;5.84;90.47;98944.56;4880085;29;20049;-75
2022/04/02 04:41:45;;;;;;;6.10;1.60;;;;;;;5.90;89.64;98946.13;4862391;29;20056;-75
2022/04/02 04:44:13;;;;;;;2.38;1.05;;;;;;;6.04;89.26;98949.81;4881099;29;20053;-75
2022/04/02 04:46:43;;;;;;;3.35;1.33;;;;;;;5.92;92.34;98944.72;4879760;29;20056;-75
2022/04/02 04:49:15;;;;;;;4.68;1.80;;;;;;;5.71;93.60;98954.22;4879918;29;20488;-75
2022/04/02 04:51:49;;;;;;;5.82;1.63;;;;;;;5.53;92.36;98951.13;4879713;29;20045;-74
2022/04/02 04:54:18;;;;;;;3.78;1.42;;;;;;;5.70;92.64;98958.81;4864449;29;20057;-75
2022/04/02 04:56:47;;;;;;;2.95;1.27;;;;;;;5.77;92.23;98956.56;4879227;29;20056;-74
2022/04/02 04:59:19;;;;;;;2.53;1.38;;;;;;;5.72;92.33;98961.25;4864476;29;20048;-75
2022/04/02 05:01:48;;;;;;;4.57;1.60;;;;;;;5.57;93.34;98960.31;4887591;29;20041;-74
2022/04/02 05:04:17;;;;;;;6.50;1.98;;;;;;;5.47;95.06;98958.50;4879834;29;20056;-75
2022/04/02 05:06:49;;;;;;;3.33;1.83;;;;;;;5.44;98.07;98960.97;4879186;29;20069;-75
2022/04/02 05:09:19;;;;;;;1.23;0.95;;;;;;;5.30;97.78;98963.53;4879342;29;20068;-74
2022/04/02 05:11:50;;;;;;;5.38;1.70;;;;;;;5.19;98.41;98974.47;4880543;29;20046;-75
2022/04/02 05:14:19;;;;;;;1.98;1.48;;;;;;;5.22;98.70;98973.09;4879105;29;20485;-74
2022/04/02 05:16:52;;;;;;;4.65;1.13;;;;;;;5.29;95.98;98973.59;4861041;29;20061;-75
2022/04/02 05:19:24;;;;;;;3.05;1.50;;;;;;;5.42;94.69;98976.75;4873962;29;20263;-75
2022/04/02 05:21:53;;;;;;;4.60;1.48;;;;;;;5.50;95.38;98984.25;4879214;29;20040;-75
2022/04/02 05:24:22;;;;;;;5.38;3.17;;;;;;;5.86;89.62;98975.75;4880225;29;20451;-75
2022/04/02 05:26:53;;;;;;;9.40;5.00;;;;;;;6.24;84.87;98985.13;4878818;29;20048;-75
2022/04/02 05:29:22;;;;;;;8.80;5.13;;;;;;;6.26;85.30;98982.97;4880191;29;20053;-75
2022/04/02 05:31:50;;;;;;;5.63;4.88;;;;;;;6.15;87.89;98980.34;4880471;29;20059;-75
2022/04/02 05:34:18;;;;;;;8.63;4.30;;;;;;;6.24;86.75;98987.84;4879862;29;20044;-75
2022/04/02 05:36:46;;;;;;;5.93;3.20;;;;;;;6.54;82.75;98986.66;4879858;29;20509;-76
2022/04/02 05:39:14;;;;;;;7.72;2.35;;;;;;;6.56;82.06;98991.81;4878976;29;20116;-76
2022/04/02 05:41:46;;;;;;;6.32;2.17;;;;;;;6.53;83.27;98981.53;4878960;29;20049;-75
2022/04/02 05:44:15;;;;;;;8.18;2.30;;;;;;;6.52;85.21;98986.16;4880793;29;20045;-73
2022/04/02 05:46:43;;;;;;;4.68;1.75;;;;;;;6.57;84.50;98996.16;4878522;29;20049;-75
2022/04/02 05:49:11;;;;;;;6.15;1.98;;;;;;;6.72;82.71;98995.97;4879918;29;20056;-75
2022/04/02 05:51:39;;;;;;;4.50;1.70;;;;;;;6.81;83.27;98996.09;4879874;29;20045;-75
2022/04/02 05:54:07;;;;;;;2.80;2.08;;;;;;;7.04;83.98;99004.47;4879686;29;20505;-75
2022/04/02 05:56:35;;;;;;;3.47;2.05;;;;;;;7.46;83.05;99015.53;4879746;29;20053;-75
2022/04/02 05:59:07;;;;;;;4.45;2.35;;;;;;;7.46;82.92;99007.34;4879559;29;20048;-75
2022/04/02 06:01:35;;;;;;;8.70;2.03;;;;;;;7.83;82.02;99004.00;4879316;29;20523;-75
2022/04/02 06:04:04;;;;;;;6.53;2.40;;;;;;;7.86;81.10;98996.03;4879284;29;20203;-75
2022/04/02 06:06:32;;;;;;;4.18;1.60;;;;;;;7.93;80.38;99003.81;4879292;29;20386;-75
2022/04/02 06:09:00;;;;;;;3.17;2.05;;;;;;;7.78;80.46;99013.09;4877690;29;20378;-73
2022/04/02 06:11:29;;;;;;;7.07;2.78;;;;;;;7.39;82.13;99012.38;4879348;29;20052;-76
2022/04/02 06:13:58;;;;;;;8.05;2.53;;;;;;;7.24;84.24;99011.50;4878102;29;20048;-74
2022/04/02 06:16:26;;;;;;;10.40;3.28;;;;;;;7.06;86.31;99004.16;4883144;29;20040;-73
2022/04/02 06:18:55;;;;;;;6.82;2.58;;;;;;;7.28;85.62;99016.38;4869399;29;20069;-81
2022/04/02 06:21:29;;;;;;;7.25;2.72;;;;;;;7.40;86.56;99014.00;4878868;29;20049;-81
2022/04/02 06:23:56;;;;;;;7.40;2.97;;;;;;;7.47;84.34;99008.16;4878833;29;20041;-81
2022/04/02 06:26:25;;;;;;;6.55;3.10;;;;;;;7.69;82.78;99018.41;4878550;29;20382;-81
2022/04/02 06:28:52;;;;;;;6.95;2.60;;;;;;;7.55;84.55;99018.38;4885661;29;20052;-81
2022/04/02 06:31:20;;;;;;;11.38;3.28;;;;;;;7.97;80.86;99017.66;4880716;29;20053;-81
2022/04/02 06:33:49;;;;;;;6.28;2.38;;;;;;;8.12;77.61;99025.50;4877678;29;20100;-81
2022/04/02 06:36:19;;;;;;;9.35;2.75;;;;;;;8.35;78.94;99031.06;4877410;29;20531;-81
2022/04/02 06:38:49;;;;;;;4.18;2.13;;;;;;;8.66;77.22;99035.94;4877409;29;20068;-80
2022/04/02 06:41:18;;;;;;;10.20;2.38;;;;;;;8.87;74.24;99030.88;4878573;29;20053;-80
2022/04/02 06:43:47;;;;;;;5.25;1.95;;;;;;;9.11;72.96;99039.88;4890241;29;20404;-81
2022/04/02 06:46:20;;;;;;;4.00;2.10;;;;;;;9.18;71.56;99047.66;4878523;29;20060;-81
2022/04/02 06:48:53;;;;;;;3.75;1.92;;;;;;;9.30;70.11;99041.66;4877996;29;20052;-80
2022/04/02 06:51:22;;;;;;;11.50;2.10;;;;;;;9.31;68.98;99043.25;4876085;29;20049;-81
2022/04/02 06:53:51;;;;;;;3.75;1.83;;;;;;;9.55;67.94;99043.75;4878053;29;20103;-82
2022/04/02 06:56:20;;;;;;;5.40;1.52;;;;;;;9.47;64.97;99049.16;4872320;29;20056;-82
2022/04/02 06:58:49;;;;;;;4.35;1.60;;;;;;;8.96;65.43;99043.78;4877204;29;20048;-81
2022/04/02 07:01:18;;;;;;;5.03;1.45;;;;;;;8.87;63.44;99052.69;4875685;29;20044;-81
2022/04/02 07:04:09;;;;;;;2.60;1.40;;;;;;;9.16;63.87;99060.78;4877994;29;20433;-81
2022/04/02 07:06:55;;;;;;;6.55;1.55;;;;;;;9.08;63.11;99074.06;4882752;29;20056;-81
2022/04/02 07:09:24;;;;;;;2.90;1.00;;;;;;;8.82;63.20;99069.16;4880644;29;20064;-80
2022/04/02 07:11:52;;;;;;;1.95;1.52;;;;;;;8.89;65.02;99062.50;4882207;29;20052;-82
2022/04/02 07:14:20;;;;;;;1.58;1.25;;;;;;;8.93;63.68;99068.94;4881194;29;20045;-82
2022/04/02 07:16:49;;;;;;;5.03;1.60;;;;;;;8.67;63.90;99074.94;4878355;29;20064;-81
2022/04/02 07:20:24;;;;;;;4.53;2.15;;;;;;;8.85;65.14;99076.72;4878406;29;20037;-84
2022/04/02 07:23:41;;;;;;;6.63;1.73;;;;;;;9.07;65.07;99077.91;4870618;29;20065;-83
2022/04/02 07:26:10;;;;;;;4.95;1.55;;;;;;;8.91;62.82;99073.88;4891250;29;20052;-83
2022/04/02 07:28:38;;;;;;;8.00;1.90;;;;;;;8.83;64.46;99081.69;4890328;29;20401;-83
2022/04/02 07:31:06;;;;;;;4.18;1.83;;;;;;;8.68;64.65;99079.25;4877776;29;20049;-83
2022/04/02 07:33:34;;;;;;;3.33;1.30;;;;;;;8.74;65.44;99087.06;4878053;29;20393;-83
2022/04/02 07:36:08;;;;;;;6.65;1.63;;;;;;;8.70;63.13;99093.44;4881039;29;20045;-84
2022/04/02 07:39:05;;;;;;;4.55;1.75;;;;;;;8.86;64.50;99100.16;4874700;29;20053;-84
2022/04/02 07:41:58;;;;;;;5.30;1.77;;;;;;;8.96;65.12;99103.78;4870775;29;20064;-83
2022/04/02 07:44:55;;;;;;;6.50;1.77;;;;;;;8.95;63.84;99102.97;4876708;29;20053;-84
2022/04/02 07:47:28;;;;;;;5.55;1.65;;;;;;;8.97;63.43;99099.94;4877883;29;20488;-83
2022/04/02 07:50:02;;;;;;;11.45;1.98;;;;;;;9.07;62.18;99107.09;4876832;29;20065;-83
2022/04/02 07:52:31;;;;;;;;;;;;;;;8.97;61.36;99113.59;4872896;29;20033;-83
2022/04/02 07:55:07;;;;;;;8.65;1.48;;;;;;;9.26;63.95;99115.16;4876456;29;19928;-83
2022/04/02 07:57:40;;;;;;;4.20;1.15;;;;;;;9.23;62.75;99119.31;4883438;29;20057;-84
2022/04/02 08:00:11;;;;;;;3.00;1.27;;;;;;;9.30;62.72;99113.44;4876769;29;20525;-82
2022/04/02 08:02:43;;;;;;;6.22;1.42;;;;;;;9.20;62.78;99119.13;4877416;29;20057;-87
2022/04/02 08:05:18;;;;;;;12.52;2.47;;;;;;;9.43;65.87;99122.69;4868553;29;20401;-85
2022/04/02 08:07:49;;;;;;;24.77;3.78;;;;;;;9.58;67.12;99118.00;4877711;29;20056;-83
2022/04/02 08:10:19;;;;;;;14.88;2.28;;;;;;;9.62;65.68;99128.00;4878061;29;20056;-82
2022/04/02 08:12:50;;;;;;;15.18;2.55;;;;;;;9.82;66.60;99123.16;4874597;29;20072;-82
2022/04/02 08:15:20;;;;;;;15.00;2.75;;;;;;;10.08;66.98;99125.25;4877800;29;20045;-87
2022/04/02 08:17:54;;;;;;;;;;;;;;;9.81;62.84;99136.03;4877143;29;20060;-88
2022/04/02 08:20:23;;;;;;;4.85;1.88;;;;;;;9.97;63.56;99140.31;4871142;29;19927;-88
2022/04/02 08:22:51;;;;;;;8.32;2.10;;;;;;;9.87;63.19;99122.22;4876634;29;20493;-88
2022/04/02 08:25:20;;;;;;;2.63;1.70;;;;;;;10.11;64.10;99134.75;4875316;29;20507;-88
2022/04/02 08:28:10;;;;;;;3.38;1.80;;;;;;;10.45;64.21;99142.38;4882136;29;20044;-87
2022/04/02 08:30:47;;;;;;;3.08;1.52;;;;;;;10.37;62.15;99136.81;4878602;29;20048;-88
2022/04/02 08:33:18;;;;;;;3.10;1.63;;;;;;;10.19;61.99;99136.72;4883700;29;20067;-86
2022/04/02 08:36:19;;;;;;;4.70;1.50;;;;;;;10.30;60.88;99145.47;4880631;29;20052;-86
2022/04/02 08:39:02;;;;;;;4.85;1.75;;;;;;;10.44;60.21;99148.16;4878943;29;20523;-85
2022/04/02 08:42:00;;;;;;;4.65;1.55;;;;;;;10.47;57.23;99150.28;4878486;29;20037;-86
2022/04/02 08:44:49;;;;;;;3.65;1.77;;;;;;;10.58;57.88;99150.78;4879924;29;20064;-87
2022/04/02 08:47:29;;;;;;;5.53;2.20;;;;;;;10.69;58.00;99143.91;4878424;29;20060;-88
2022/04/02 08:50:10;;;;;;;6.15;3.25;;;;;;;10.89;60.77;99145.28;4874882;29;20378;-88
2022/04/02 08:52:53;;;;;;;5.78;2.28;;;;;;;11.14;59.45;99144.84;4867797;29;20045;-86
2022/04/02 08:55:24;;;;;;;4.50;2.00;;;;;;;11.14;60.31;99162.09;4872837;29;20046;-87
2022/04/02 08:57:52;;;;;;;7.38;2.40;;;;;;;10.94;59.90;99165.44;4870234;29;20087;-85
2022/04/02 09:00:27;;;;;;;5.55;1.92;;;;;;;10.72;61.57;99154.22;4877506;29;20049;-85
2022/04/02 09:03:14;;;;;;;3.65;1.70;;;;;;;10.46;63.88;99170.53;4860444;29;20053;-85
2022/04/02 09:06:08;;;;;;;6.13;2.33;;;;;;;10.52;62.66;99172.03;4875382;29;20057;-84
2022/04/02 09:09:03;;;;;;;5.32;1.90;;;;;;;10.66;64.08;99182.06;4877412;29;20069;-85
2022/04/02 09:11:59;;;;;;;5.90;2.33;;;;;;;10.75;63.34;99186.44;4873589;29;20049;-84
2022/04/02 09:14:50;;;;;;;4.43;2.30;;;;;;;10.70;62.81;99172.09;4876847;29;20045;-85
2022/04/02 09:18:06;;;;;;;5.35;2.25;;;;;;;11.23;62.77;99172.25;4877588;29;20064;-87
2022/04/02 09:20:55;;;;;;;6.28;2.17;;;;;;;11.60;58.05;99182.94;4846561;29;20064;-87
2022/04/02 09:23:43;;;;;;;4.65;1.88;;;;;;;11.63;55.39;99179.56;4878080;29;20056;-89
2022/04/02 09:26:40;;;;;;;4.45;1.63;;;;;;;11.68;52.29;99185.69;4873265;29;20401;-88
2022/04/02 09:29:28;;;;;;;7.05;1.95;;;;;;;12.04;54.21;99183.78;4875411;29;20056;-88
2022/04/02 09:32:09;;;;;;;5.80;1.08;;;;;;;12.36;52.91;99189.03;4876575;29;20049;-89
2022/04/02 09:34:56;;;;;;;1.85;1.00;;;;;;;12.20;50.60;99188.75;4876685;29;20056;-90
2022/04/02 09:38:06;;;;;;;2.60;1.38;;;;;;;11.65;49.91;99185.53;4872402;29;20053;-90
2022/04/02 09:41:01;;;;;;;3.50;1.50;;;;;;;11.87;52.20;99200.22;4858241;29;20049;-89
2022/04/02 09:43:37;;;;;;;3.88;1.48;;;;;;;11.72;51.65;99187.78;4876282;29;20507;-86
2022/04/02 09:46:23;;;;;;;1.50;1.23;;;;;;;11.82;52.72;99199.25;4876229;29;20104;-85
2022/04/02 09:49:17;;;;;;;5.78;2.13;;;;;;;11.36;53.24;99192.41;4877978;29;20044;-85
2022/04/02 09:51:56;;;;;;;5.65;2.00;;;;;;;11.42;53.29;99202.09;4877690;29;20053;-85
2022/04/02 09:54:48;;;;;;;2.50;1.63;;;;;;;11.75;52.50;99209.06;4877646;29;20052;-86
2022/04/02 09:57:29;;;;;;;3.05;2.00;;;;;;;11.94;51.38;99206.00;4876696;29;20095;-85
2022/04/02 10:00:03;;;;;;;3.53;1.60;;;;;;;11.83;49.51;99216.47;4877418;29;20045;-86
2022/04/02 10:02:47;;;;;;;2.25;1.30;;;;;;;12.10;49.46;99217.31;4873288;29;20783;-85
2022/04/02 10:05:22;;;;;;;1.90;0.82;;;;;;;11.91;45.39;99212.94;4877433;29;20061;-84
2022/04/02 10:08:31;;;;;;;1.35;0.80;;;;;;;12.23;45.29;99207.31;4870940;29;20076;-85
2022/04/02 10:11:02;;;;;;;1.88;0.88;;;;;;;12.46;45.22;99212.59;4875713;29;20053;-85
2022/04/02 10:13:33;;;;;;;2.35;1.00;;;;;;;12.16;47.33;99210.53;4877211;29;20052;-86
2022/04/02 10:16:04;;;;;;;3.13;1.25;;;;;;;12.04;47.16;99205.72;4866794;29;20038;-85
2022/04/02 10:18:36;;;;;;;2.20;1.30;;;;;;;11.58;48.08;99215.34;4876180;29;20045;-86
2022/04/02 10:21:06;;;;;;;2.63;1.23;;;;;;;11.76;49.29;99222.44;4875453;29;20539;-85
2022/04/02 10:23:38;;;;;;;1.70;1.42;;;;;;;11.93;49.19;99215.38;4877140;29;20049;-85
2022/04/02 10:26:14;;;;;;;1.73;1.25;;;;;;;12.46;47.60;99209.84;4877338;29;20056;-85
2022/04/02 10:28:55;;;;;;;4.35;1.30;;;;;;;12.69;47.31;99231.56;4873365;29;20049;-84
2022/04/02 10:31:36;;;;;;;3.53;2.30;;;;;;;12.19;48.26;99229.09;4876880;29;20041;-85
2022/04/02 10:34:16;;;;;;;4.22;1.60;;;;;;;12.06;48.42;99221.81;4872387;29;20045;-86
2022/04/02 10:37:17;;;;;;;1.75;1.38;;;;;;;12.16;48.38;99223.44;4873452;29;20797;-84
2022/04/02 10:40:02;;;;;;;6.85;2.60;;;;;;;12.08;50.40;99233.31;4864697;29;20057;-84
2022/04/02 10:42:40;;;;;;;5.63;2.50;;;;;;;11.80;48.84;99244.53;4875251;29;20507;-85
2022/04/02 10:45:13;;;;;;;2.78;1.90;;;;;;;11.80;50.49;99234.41;4874826;29;20057;-84
2022/04/02 10:47:46;;;;;;;7.45;3.40;;;;;;;11.61;49.28;99244.81;4873973;29;20075;-85
2022/04/02 10:50:19;;;;;;;6.53;3.05;;;;;;;11.55;51.90;99244.97;4872748;29;20053;-86
2022/04/02 10:52:51;;;;;;;6.25;3.33;;;;;;;11.63;50.67;99248.88;4869893;29;20053;-85
2022/04/02 10:55:23;;;;;;;5.13;3.00;;;;;;;11.79;51.70;99262.91;4875923;29;20041;-84
2022/04/02 10:57:52;;;;;;;5.60;3.20;;;;;;;11.76;51.77;99247.13;4876702;29;20480;-84
2022/04/02 11:00:20;;;;;;;6.43;3.13;;;;;;;11.54;51.76;99262.53;4874140;29;20059;-84
2022/04/02 11:02:50;;;;;;;6.78;2.75;;;;;;;11.50;52.81;99247.88;4878102;29;20056;-84
2022/04/02 11:05:19;;;;;;;4.00;1.98;;;;;;;11.51;52.52;99265.94;4873793;29;20052;-84
2022/04/02 11:07:51;;;;;;;4.03;2.30;;;;;;;11.66;52.49;99267.41;4877857;29;20056;-85
2022/04/02 11:10:20;;;;;;;3.40;1.63;;;;;;;11.53;51.08;99271.06;4877966;29;20061;-84
2022/04/02 11:12:59;;;;;;;3.33;2.45;;;;;;;11.55;49.99;99271.59;4877427;29;20056;-86
2022/04/02 11:15:28;;;;;;;7.45;3.03;;;;;;;11.56;51.63;99284.97;4874972;29;20045;-85
2022/04/02 11:17:58;;;;;;;13.13;5.00;;;;;;;11.61;50.69;99269.50;4878048;29;20064;-84
2022/04/02 11:20:28;;;;;;;11.20;4.20;;;;;;;11.62;51.16;99277.41;4878002;29;20052;-85
2022/04/02 11:22:59;;;;;;;3.40;2.20;;;;;;;11.47;50.08;99275.91;4877826;29;20045;-84
2022/04/02 11:25:34;;;;;;;5.53;2.67;;;;;;;11.51;51.74;99271.41;4878128;29;20508;-85
2022/04/02 11:28:05;;;;;;;4.78;1.88;;;;;;;11.41;51.27;99282.66;4876379;29;20037;-85
2022/04/02 11:30:45;;;;;;;3.83;2.25;;;;;;;11.48;51.35;99283.00;4877957;29;20045;-85
2022/04/02 11:33:18;;;;;;;4.60;1.65;;;;;;;11.53;51.50;99288.34;4877872;29;20049;-85
2022/04/02 11:35:57;;;;;;;8.57;2.10;;;;;;;11.60;50.79;99292.53;4876030;29;20053;-84
2022/04/02 11:38:39;;;;;;;3.22;2.00;;;;;;;11.83;50.48;99290.47;4876191;29;20508;-85
2022/04/02 11:41:38;;;;;;;3.28;1.75;;;;;;;11.82;50.23;99286.94;4877208;29;20057;-85
2022/04/02 11:44:15;;;;;;;3.95;1.40;;;;;;;11.89;49.08;99286.47;4875489;29;20049;-85
2022/04/02 11:46:54;;;;;;;3.38;1.52;;;;;;;11.38;50.13;99288.75;4874926;29;20041;-84
2022/04/02 11:49:36;;;;;;;3.60;1.58;;;;;;;11.46;50.06;99293.47;4875408;29;20048;-84
2022/04/02 11:52:08;;;;;;;5.07;1.80;;;;;;;11.52;48.91;99292.19;4876005;29;20068;-87
2022/04/02 11:54:48;;;;;;;2.88;1.30;;;;;;;11.91;50.96;99283.41;4876385;29;20067;-85
2022/04/02 11:57:19;;;;;;;8.65;2.05;;;;;;;12.19;49.28;99283.13;4876594;29;20409;-85
2022/04/02 11:59:56;;;;;;;3.80;1.58;;;;;;;12.21;49.33;99297.31;4876148;29;20507;-85
2022/04/02 12:02:34;;;;;;;2.05;1.35;;;;;;;12.21;49.15;99300.06;4876969;29;20056;-85
2022/04/02 12:05:05;;;;;;;3.28;1.52;;;;;;;12.45;48.08;99310.56;4875742;29;20063;-85
2022/04/02 12:07:49;;;;;;;2.60;1.30;;;;;;;12.44;46.87;99306.22;4873957;29;20332;-85
2022/04/02 12:10:47;;;;;;;3.63;1.83;;;;;;;12.27;47.98;99301.50;4877801;29;20052;-81
2022/04/02 12:13:16;;;;;;;7.15;1.77;;;;;;;12.56;48.35;99313.75;4877845;29;20060;-84
2022/04/02 12:16:15;;;;;;;13.93;3.85;;;;;;;12.19;48.28;99307.81;4878652;29;20515;-91